Holmesville, Nebraska
Current Conditions -  °F | °C
As of 7:15 PM on Wednesday 26 Nov 2014 (Local Time) from KBIE Reporting Station
Overcast Overcast  
Wind Chill: 15°   Ceiling: 1800
Heat Index: 27°   Visibility: 10mi
Dew Point: 20°   Wind: 14mph
Humidity: 77%   Direction: 360°N
Pressure: 30.37"   Gusts: NA
Location:  40.2°N, 96.66°W
Report Text: KBIE 270115Z AUTO 36012KT 10SM OVC018 M03/M06 A3037 RMK AO2 T10301065
Loading
Personal Weather Stations






























Interactive Weather Map New forecast layout! Learn more

10-Day Weather Forecast

Advertisements
Track Severe Weather on mobile